Time;durP1;ratioP1;P1;durP2;ratioP2;P2;SDS_P1;SDS_P2;PMS_P1;PMS_P2;Temp;Humidity;BMP_temperature;BMP_pressure;BME280_temperature;BME280_humidity;BME280_pressure;Samples;Min_cycle;Max_cycle;Signal;HPM_P1;HPM_P2
2023/10/18 00:02:02;;;;;;;9.52;6.85;;;4.50;99.90;;;;;;4991495;28;20077;-46
2023/10/18 00:04:28;;;;;;;11.30;7.00;;;4.50;99.90;;;;;;4991720;28;20507;-44
2023/10/18 00:06:55;;;;;;;11.90;8.15;;;4.50;99.90;;;;;;4991637;28;20514;-45
2023/10/18 00:12:07;;;;;;;9.85;6.95;;;4.40;99.90;;;;;;4991602;28;20554;-47
2023/10/18 00:14:34;;;;;;;11.18;7.03;;;4.40;99.90;;;;;;4991252;28;20085;-44
2023/10/18 00:17:00;;;;;;;11.40;7.15;;;4.40;99.90;;;;;;4990850;28;20030;-46
2023/10/18 00:19:26;;;;;;;11.48;6.97;;;4.40;99.90;;;;;;4991418;28;20066;-45
2023/10/18 00:21:52;;;;;;;12.00;7.53;;;4.40;99.90;;;;;;4991222;28;20037;-47
2023/10/18 00:24:18;;;;;;;8.93;6.90;;;4.30;99.90;;;;;;4991131;28;20049;-44
2023/10/18 00:26:44;;;;;;;9.93;6.78;;;4.30;99.90;;;;;;4991160;28;20061;-46
2023/10/18 00:29:10;;;;;;;10.57;6.63;;;4.30;99.90;;;;;;4991129;28;20464;-44
2023/10/18 00:31:36;;;;;;;10.43;7.47;;;4.20;99.90;;;;;;4991233;28;20026;-44
2023/10/18 00:34:04;;;;;;;8.60;5.97;;;4.20;99.90;;;;;;4991035;28;20084;-44
2023/10/18 00:36:30;;;;;;;8.32;6.25;;;4.20;99.90;;;;;;4990653;28;20248;-45
2023/10/18 00:38:55;;;;;;;8.82;6.47;;;4.10;99.90;;;;;;4991138;28;20030;-44
2023/10/18 00:41:32;;;;;;;8.73;6.50;;;4.10;99.90;;;;;;4990502;28;20027;-45
2023/10/18 00:43:58;;;;;;;8.77;6.32;;;4.10;99.90;;;;;;4990834;28;20093;-45
2023/10/18 00:46:24;;;;;;;9.68;6.63;;;4.10;99.90;;;;;;4990485;28;20041;-44
2023/10/18 00:48:50;;;;;;;10.27;7.32;;;4.10;99.90;;;;;;4990684;28;20141;-43
2023/10/18 00:51:17;;;;;;;9.57;6.40;;;4.00;99.90;;;;;;4991053;28;20026;-44
2023/10/18 00:53:45;;;;;;;10.93;7.18;;;4.00;99.90;;;;;;4990800;28;20038;-44
2023/10/18 00:56:15;;;;;;;9.93;6.85;;;4.00;99.90;;;;;;4990283;28;20022;-45
2023/10/18 00:58:42;;;;;;;11.02;6.93;;;3.90;99.90;;;;;;4991151;28;20113;-47
2023/10/18 01:01:09;;;;;;;10.32;7.50;;;4.00;99.90;;;;;;4990504;28;20542;-43
2023/10/18 01:03:38;;;;;;;12.18;7.40;;;4.00;99.90;;;;;;4990540;28;20160;-43
2023/10/18 01:06:17;;;;;;;11.55;7.13;;;3.90;99.90;;;;;;4990087;28;20014;-45
2023/10/18 01:08:46;;;;;;;12.10;7.43;;;3.90;99.90;;;;;;4990828;28;20014;-44
2023/10/18 01:11:12;;;;;;;11.00;7.45;;;3.80;99.90;;;;;;4990330;28;20027;-44
2023/10/18 01:13:42;;;;;;;11.30;7.15;;;3.80;99.90;;;;;;4990431;28;20618;-44
2023/10/18 01:16:13;;;;;;;11.27;7.32;;;3.80;99.90;;;;;;4972525;28;20026;-44
2023/10/18 01:18:42;;;;;;;29.70;19.40;;;3.80;99.90;;;;;;4990410;28;20026;-44
2023/10/18 01:21:13;;;;;;;16.98;10.80;;;3.80;99.90;;;;;;4972587;28;20018;-44
2023/10/18 01:23:59;;;;;;;14.77;10.23;;;3.80;99.90;;;;;;4990371;28;20138;-45
2023/10/18 01:26:29;;;;;;;13.10;8.88;;;3.80;99.90;;;;;;4990048;28;20024;-46
2023/10/18 01:28:57;;;;;;;11.82;7.53;;;3.70;99.90;;;;;;4990095;28;20033;-43
2023/10/18 01:31:24;;;;;;;12.60;8.70;;;3.60;99.90;;;;;;4989946;28;20034;-46
2023/10/18 01:33:51;;;;;;;14.88;7.72;;;3.60;99.90;;;;;;4990239;28;20499;-45
2023/10/18 01:36:21;;;;;;;14.48;7.38;;;3.60;99.90;;;;;;4989767;28;20081;-45
2023/10/18 01:38:56;;;;;;;12.98;8.13;;;3.60;99.90;;;;;;4990053;28;20232;-46
2023/10/18 01:41:34;;;;;;;12.05;8.40;;;3.60;99.90;;;;;;4972575;28;20058;-45
2023/10/18 01:44:07;;;;;;;13.13;8.20;;;3.50;99.90;;;;;;4988481;28;20018;-46
2023/10/18 01:46:34;;;;;;;17.75;10.57;;;3.50;99.90;;;;;;4989698;28;20029;-45
2023/10/18 01:49:00;;;;;;;11.93;7.30;;;3.40;99.90;;;;;;4989935;28;20018;-44
2023/10/18 01:51:27;;;;;;;14.48;7.80;;;3.40;99.90;;;;;;4989861;28;20036;-43
2023/10/18 01:53:54;;;;;;;11.32;7.63;;;3.50;99.90;;;;;;4972502;28;20069;-43
2023/10/18 01:56:21;;;;;;;15.75;8.23;;;3.50;99.90;;;;;;4972201;28;20484;-45
2023/10/18 01:58:50;;;;;;;12.32;7.43;;;3.50;99.90;;;;;;4989776;28;20072;-46
2023/10/18 02:01:16;;;;;;;12.90;7.00;;;3.60;99.90;;;;;;4972108;28;20057;-45
2023/10/18 02:03:45;;;;;;;13.15;7.28;;;3.50;99.90;;;;;;4989618;28;20498;-45
2023/10/18 02:06:14;;;;;;;12.80;7.40;;;3.50;99.90;;;;;;4989331;28;20428;-44
2023/10/18 02:08:40;;;;;;;11.35;7.18;;;3.50;99.90;;;;;;4989749;28;20085;-45
2023/10/18 02:11:08;;;;;;;10.13;6.97;;;3.50;99.90;;;;;;4989284;28;20404;-47
2023/10/18 02:13:34;;;;;;;9.52;6.82;;;3.40;99.90;;;;;;4989878;28;20015;-43
2023/10/18 02:15:59;;;;;;;28.63;7.20;;;3.30;99.90;;;;;;4989469;28;20478;-44
2023/10/18 02:18:27;;;;;;;8.32;5.53;;;3.30;99.90;;;;;;4972105;28;20240;-45
2023/10/18 02:20:53;;;;;;;10.65;6.70;;;3.20;99.90;;;;;;4989647;28;20046;-43
2023/10/18 02:23:21;;;;;;;12.52;7.18;;;3.30;99.90;;;;;;4989428;28;20384;-43
2023/10/18 02:25:47;;;;;;;12.80;7.85;;;3.30;99.90;;;;;;4989247;28;20029;-43
2023/10/18 02:28:24;;;;;;;11.20;7.55;;;3.10;99.90;;;;;;4972339;28;20109;-45
2023/10/18 02:30:55;;;;;;;10.05;6.43;;;3.10;99.90;;;;;;4990001;28;20515;-46
2023/10/18 02:33:23;;;;;;;13.27;7.82;;;3.10;99.90;;;;;;4989679;28;20027;-44
2023/10/18 02:35:49;;;;;;;14.75;7.35;;;3.00;99.90;;;;;;4989605;28;20026;-43
2023/10/18 02:38:14;;;;;;;13.23;7.47;;;3.10;99.90;;;;;;4989358;28;20092;-43
2023/10/18 02:40:40;;;;;;;11.85;8.15;;;3.00;99.90;;;;;;4974802;28;20026;-43
2023/10/18 02:43:11;;;;;;;11.35;7.32;;;3.10;99.90;;;;;;4992961;28;20050;-45
2023/10/18 02:45:39;;;;;;;;;;;3.10;99.90;;;;;;4993399;28;20014;-44
2023/10/18 02:48:08;;;;;;;15.75;7.95;;;3.20;99.90;;;;;;4993170;28;19913;-44
2023/10/18 02:50:34;;;;;;;11.55;6.53;;;3.20;99.90;;;;;;4993057;28;20042;-44
2023/10/18 02:53:00;;;;;;;10.30;6.60;;;3.10;99.90;;;;;;4975488;28;20077;-44
2023/10/18 02:55:26;;;;;;;9.57;6.25;;;3.20;99.90;;;;;;4992791;28;20029;-43
2023/10/18 02:57:52;;;;;;;10.10;6.60;;;3.20;99.90;;;;;;4993135;28;20384;-45
2023/10/18 03:00:18;;;;;;;11.35;6.53;;;3.20;99.90;;;;;;4993213;28;20037;-44
2023/10/18 03:02:44;;;;;;;10.82;6.80;;;3.10;99.90;;;;;;4993071;28;20108;-44
2023/10/18 03:05:10;;;;;;;8.52;5.63;;;3.10;99.90;;;;;;4992776;28;20074;-44
2023/10/18 03:07:36;;;;;;;9.77;5.68;;;3.00;99.90;;;;;;4992962;28;20026;-44
2023/10/18 03:10:13;;;;;;;8.95;6.40;;;3.10;99.90;;;;;;4993101;28;20014;-44
2023/10/18 03:12:39;;;;;;;9.05;6.13;;;3.10;99.90;;;;;;4993052;28;20031;-46
2023/10/18 03:15:09;;;;;;;8.85;6.15;;;3.10;99.90;;;;;;4992682;28;20088;-44
2023/10/18 03:17:37;;;;;;;8.50;5.93;;;3.10;99.90;;;;;;4993019;28;20423;-46
2023/10/18 03:20:26;;;;;;;9.57;5.45;;;3.00;99.90;;;;;;4992748;28;20054;-45
2023/10/18 03:22:51;;;;;;;7.30;5.45;;;3.00;99.90;;;;;;4991542;28;20077;-44
2023/10/18 03:25:17;;;;;;;9.82;6.47;;;3.00;99.90;;;;;;4992513;28;20018;-43
2023/10/18 03:27:50;;;;;;;11.20;6.55;;;3.00;99.90;;;;;;4992682;28;20018;-45
2023/10/18 03:30:18;;;;;;;9.50;6.00;;;3.00;99.90;;;;;;4992551;28;20527;-45
2023/10/18 03:32:53;;;;;;;10.43;7.20;;;3.00;99.90;;;;;;4992403;28;20022;-44
2023/10/18 03:35:22;;;;;;;9.93;6.57;;;2.90;99.90;;;;;;4992220;28;20026;-44
2023/10/18 03:37:48;;;;;;;10.20;6.03;;;3.00;99.90;;;;;;4992446;28;20049;-47
2023/10/18 03:40:19;;;;;;;8.95;6.60;;;2.80;99.90;;;;;;4992448;28;20038;-43
2023/10/18 03:42:45;;;;;;;10.70;6.63;;;2.80;99.90;;;;;;4992245;28;20058;-44
2023/10/18 03:45:11;;;;;;;10.23;6.07;;;2.80;99.90;;;;;;4992377;28;20022;-43
2023/10/18 03:47:37;;;;;;;9.10;5.88;;;2.80;99.90;;;;;;4992341;28;20085;-44
2023/10/18 03:50:15;;;;;;;8.70;6.70;;;2.70;99.90;;;;;;4992155;28;20519;-44
2023/10/18 03:52:41;;;;;;;7.88;5.60;;;2.70;99.90;;;;;;4984656;28;20037;-43
2023/10/18 03:55:17;;;;;;;9.93;6.28;;;2.70;99.90;;;;;;4991628;28;20540;-44
2023/10/18 03:57:43;;;;;;;8.27;6.38;;;2.70;99.90;;;;;;4991878;28;20038;-44
2023/10/18 04:03:07;;;;;;;8.93;6.05;;;2.60;99.90;;;;;;4981988;28;20043;-43
2023/10/18 04:05:45;;;;;;;11.07;6.50;;;2.60;99.90;;;;;;4985175;28;20377;-43
2023/10/18 04:08:16;;;;;;;9.18;6.05;;;2.50;99.90;;;;;;4985563;28;20030;-44
2023/10/18 04:10:42;;;;;;;8.52;6.53;;;2.50;99.90;;;;;;4984870;28;20093;-44
2023/10/18 04:13:14;;;;;;;7.70;5.55;;;2.50;99.90;;;;;;4984933;28;20026;-47
2023/10/18 04:15:46;;;;;;;9.55;5.80;;;2.50;99.90;;;;;;4981328;28;20029;-43
2023/10/18 04:18:13;;;;;;;7.40;5.28;;;2.50;99.90;;;;;;4984976;28;20027;-43
2023/10/18 04:20:43;;;;;;;8.77;5.70;;;2.50;99.90;;;;;;4985169;28;20034;-44
2023/10/18 04:23:15;;;;;;;8.52;5.95;;;2.50;99.90;;;;;;4982752;28;20026;-46
2023/10/18 04:25:47;;;;;;;8.77;5.90;;;2.40;99.90;;;;;;4983557;28;20157;-43
2023/10/18 04:28:12;;;;;;;7.95;5.00;;;2.30;99.90;;;;;;4985057;28;20034;-44
2023/10/18 04:30:38;;;;;;;7.38;5.15;;;2.20;99.90;;;;;;4985001;28;20027;-44
2023/10/18 04:33:24;;;;;;;8.40;5.50;;;2.30;99.90;;;;;;4983544;28;20518;-45
2023/10/18 04:35:52;;;;;;;7.63;5.15;;;2.30;99.90;;;;;;4983323;28;20435;-44
2023/10/18 04:38:22;;;;;;;7.68;5.10;;;2.30;99.90;;;;;;4990713;28;20026;-44
2023/10/18 04:41:23;;;;;;;6.35;4.72;;;2.30;99.90;;;;;;4990920;28;20022;-43
2023/10/18 04:43:37;;;;;;;6.57;4.82;;;2.20;99.90;;;;;;4990479;28;20392;-44
2023/10/18 04:51:27;;;;;;;9.63;5.90;;;2.30;99.90;;;;;;4991439;28;20030;-44
2023/10/18 04:54:01;;;;;;;8.05;5.88;;;2.30;99.90;;;;;;4990740;28;20477;-43
2023/10/18 04:56:32;;;;;;;9.45;6.50;;;2.30;99.90;;;;;;4990723;28;20153;-43
2023/10/18 04:59:11;;;;;;;8.65;6.10;;;2.30;99.90;;;;;;4973477;28;20042;-44
2023/10/18 05:01:57;;;;;;;12.57;5.93;;;2.30;99.90;;;;;;4990786;28;20037;-43
2023/10/18 05:04:24;;;;;;;8.90;5.60;;;2.30;99.90;;;;;;4973502;28;20050;-43
2023/10/18 05:06:54;;;;;;;11.98;6.18;;;2.30;99.90;;;;;;4990767;28;20030;-44
2023/10/18 05:09:41;;;;;;;10.27;6.43;;;2.30;99.90;;;;;;4990610;28;20500;-44
2023/10/18 05:17:30;;;;;;;23.05;8.95;;;2.30;99.90;;;;;;4990765;28;20026;-45
2023/10/18 05:19:56;;;;;;;10.70;6.90;;;2.20;99.90;;;;;;4988308;28;20497;-44
2023/10/18 05:22:25;;;;;;;8.85;6.10;;;2.20;99.90;;;;;;4989891;28;20495;-45
2023/10/18 05:25:23;;;;;;;10.30;6.13;;;2.20;99.90;;;;;;4988903;28;20069;-43
2023/10/18 05:28:14;;;;;;;14.13;6.25;;;2.30;99.90;;;;;;4982524;28;20026;-44
2023/10/18 05:34:01;;;;;;;8.65;6.35;;;2.20;99.90;;;;;;4990359;28;20628;-45
2023/10/18 05:36:29;;;;;;;9.52;6.65;;;2.20;99.90;;;;;;4987877;28;20049;-44
2023/10/18 05:39:17;;;;;;;9.07;5.83;;;2.30;99.90;;;;;;4990489;28;20044;-44
2023/10/18 05:41:45;;;;;;;10.63;7.32;;;2.30;99.90;;;;;;4989978;28;20035;-43
2023/10/18 05:44:12;;;;;;;10.13;6.30;;;2.30;99.90;;;;;;4989851;28;20034;-43
2023/10/18 05:46:39;;;;;;;12.43;7.32;;;2.30;99.90;;;;;;4989964;28;20093;-47
2023/10/18 05:49:15;;;;;;;11.60;7.20;;;2.30;99.90;;;;;;4972480;28;20588;-47
2023/10/18 05:51:53;;;;;;;13.57;7.10;;;2.30;99.90;;;;;;4990033;28;20034;-46
2023/10/18 05:54:23;;;;;;;10.57;7.30;;;2.30;99.90;;;;;;4989850;28;20034;-46
2023/10/18 05:56:53;;;;;;;11.20;6.93;;;2.30;99.90;;;;;;4989863;28;20026;-49
2023/10/18 06:01:45;;;;;;;13.27;7.90;;;2.40;99.90;;;;;;4989712;28;20297;-46
2023/10/18 06:04:13;;;;;;;10.32;6.65;;;2.40;99.90;;;;;;4990151;28;20033;-45
2023/10/18 06:06:39;;;;;;;11.23;6.70;;;2.30;99.90;;;;;;4972134;28;20530;-46
2023/10/18 06:09:11;;;;;;;13.40;7.53;;;2.30;99.90;;;;;;4990003;28;20022;-46
2023/10/18 06:11:38;;;;;;;13.02;8.30;;;2.30;99.90;;;;;;4989893;28;20022;-49
2023/10/18 06:14:08;;;;;;;14.35;8.25;;;2.40;99.90;;;;;;4990331;28;20126;-47
2023/10/18 06:16:34;;;;;;;10.32;7.25;;;2.40;99.90;;;;;;4993560;28;20058;-45
2023/10/18 06:19:07;;;;;;;12.30;7.75;;;2.40;99.90;;;;;;4993456;28;20042;-45
2023/10/18 06:21:46;;;;;;;15.38;8.68;;;2.50;99.90;;;;;;4993640;28;20037;-47
2023/10/18 06:24:12;;;;;;;15.13;8.83;;;2.50;99.90;;;;;;4993607;28;20081;-46
2023/10/18 06:26:42;;;;;;;14.73;8.38;;;2.50;99.90;;;;;;4993233;28;20307;-45
2023/10/18 06:29:22;;;;;;;21.75;8.75;;;2.60;99.90;;;;;;4993381;28;20022;-46
2023/10/18 06:31:49;;;;;;;14.68;8.25;;;2.60;99.90;;;;;;4993808;28;20030;-45
2023/10/18 06:34:17;;;;;;;16.05;8.75;;;2.70;99.90;;;;;;4993183;28;20519;-46
2023/10/18 06:36:52;;;;;;;13.75;8.48;;;2.70;99.90;;;;;;4975957;28;20031;-46
2023/10/18 06:39:25;;;;;;;15.70;8.68;;;2.70;99.90;;;;;;4993331;28;20507;-46
2023/10/18 06:41:55;;;;;;;13.02;8.15;;;2.80;99.90;;;;;;4975834;28;20030;-45
2023/10/18 06:44:27;;;;;;;15.75;9.20;;;2.80;99.90;;;;;;4993054;28;20054;-46
2023/10/18 06:46:53;;;;;;;14.02;8.38;;;2.80;99.90;;;;;;4993113;28;20046;-45
2023/10/18 06:49:19;;;;;;;18.05;9.90;;;2.80;99.90;;;;;;4975688;28;20411;-45
2023/10/18 06:51:49;;;;;;;18.00;9.88;;;2.90;99.90;;;;;;4993245;28;20057;-45
2023/10/18 06:54:15;;;;;;;17.63;10.32;;;2.90;99.90;;;;;;4993177;28;20023;-45
2023/10/18 06:56:45;;;;;;;14.65;9.63;;;3.00;99.90;;;;;;4992990;28;20065;-49
2023/10/18 06:59:11;;;;;;;18.65;10.70;;;3.00;99.90;;;;;;4993111;28;20030;-47
2023/10/18 07:01:53;;;;;;;15.55;10.05;;;3.10;99.90;;;;;;4975552;28;20088;-45
2023/10/18 07:04:18;;;;;;;18.83;9.88;;;3.10;99.90;;;;;;4992718;28;20177;-47
2023/10/18 07:06:45;;;;;;;17.65;9.52;;;3.10;99.90;;;;;;4992745;28;20106;-45
2023/10/18 07:09:25;;;;;;;17.75;10.10;;;3.20;99.90;;;;;;4992662;28;20045;-48
2023/10/18 07:11:57;;;;;;;;;;;3.30;99.90;;;;;;4976089;28;20088;-45
2023/10/18 07:14:26;;;;;;;17.52;9.50;;;3.30;99.90;;;;;;4992746;28;19906;-47
2023/10/18 07:16:54;;;;;;;19.42;10.75;;;3.40;99.90;;;;;;4992664;28;20029;-46
2023/10/18 07:19:27;;;;;;;15.98;9.95;;;3.40;99.90;;;;;;4992740;28;20030;-48
2023/10/18 07:21:57;;;;;;;18.98;10.02;;;3.50;99.90;;;;;;4975031;28;20069;-47
2023/10/18 07:24:32;;;;;;;22.10;12.30;;;3.50;99.90;;;;;;4992661;28;20030;-45
2023/10/18 07:26:59;;;;;;;20.10;10.60;;;3.60;99.90;;;;;;4991297;28;20320;-45
2023/10/18 07:29:27;;;;;;;23.88;11.38;;;3.70;99.90;;;;;;4992649;28;20025;-46
2023/10/18 07:31:53;;;;;;;19.70;10.63;;;3.80;99.90;;;;;;4992448;28;20050;-47
2023/10/18 07:34:25;;;;;;;17.35;10.70;;;3.80;99.90;;;;;;4992326;28;20712;-46
2023/10/18 07:36:54;;;;;;;19.40;10.85;;;3.90;99.90;;;;;;4992323;28;20022;-46
2023/10/18 07:39:24;;;;;;;16.98;10.05;;;4.00;99.90;;;;;;4992333;28;20394;-48
2023/10/18 07:41:50;;;;;;;26.83;13.07;;;4.00;99.90;;;;;;4992373;28;20297;-49
2023/10/18 07:44:15;;;;;;;22.13;10.88;;;4.10;99.90;;;;;;4991841;28;20101;-48
2023/10/18 07:46:41;;;;;;;19.30;11.30;;;4.10;99.90;;;;;;4992032;28;20122;-50
2023/10/18 07:49:22;;;;;;;20.65;12.35;;;4.10;99.90;;;;;;4992496;28;20503;-49
2023/10/18 07:51:55;;;;;;;20.70;11.95;;;4.30;99.90;;;;;;4992271;28;20033;-50
2023/10/18 07:54:22;;;;;;;15.10;10.25;;;4.30;99.90;;;;;;4974391;28;20097;-50
2023/10/18 07:56:49;;;;;;;18.13;10.23;;;4.60;99.90;;;;;;4991854;28;20108;-49
2023/10/18 07:59:27;;;;;;;18.52;12.10;;;4.80;99.90;;;;;;4991847;28;20108;-49
2023/10/18 08:04:43;;;;;;;17.60;10.73;;;5.10;99.90;;;;;;4991934;28;20387;-50
2023/10/18 08:07:10;;;;;;;17.85;11.40;;;5.20;99.90;;;;;;4974118;28;20026;-50
2023/10/18 08:09:43;;;;;;;18.85;10.98;;;5.40;99.90;;;;;;4992050;28;20479;-51
2023/10/18 08:12:49;;;;;;;19.50;11.32;;;5.50;99.90;;;;;;4991783;28;20076;-51
2023/10/18 08:15:21;;;;;;;17.45;10.68;;;5.70;99.90;;;;;;4973508;28;20471;-48
2023/10/18 08:17:50;;;;;;;18.92;11.57;;;5.80;99.90;;;;;;4990883;28;20034;-51
2023/10/18 08:22:52;;;;;;;15.07;10.98;;;6.20;99.90;;;;;;4991118;28;20058;-50
2023/10/18 08:25:25;;;;;;;25.17;11.25;;;6.40;99.90;;;;;;4973533;28;20026;-51
2023/10/18 08:27:51;;;;;;;15.95;10.63;;;6.50;99.90;;;;;;4997541;28;20040;-50
2023/10/18 08:33:19;;;;;;;14.75;11.02;;;6.60;99.90;;;;;;4949451;29;20029;-51
2023/10/18 08:35:46;;;;;;;19.80;10.52;;;6.70;99.90;;;;;;4997771;28;20091;-51
2023/10/18 08:38:12;;;;;;;18.58;12.02;;;6.80;99.90;;;;;;4992836;28;20084;-48
2023/10/18 08:40:38;;;;;;;19.40;11.68;;;6.90;99.90;;;;;;5009860;28;20029;-51
2023/10/18 08:43:29;;;;;;;17.13;11.50;;;6.90;99.90;;;;;;4992747;28;20498;-51
2023/10/18 08:45:55;;;;;;;16.25;11.02;;;7.10;99.90;;;;;;4993732;28;20044;-49
2023/10/18 08:48:28;;;;;;;14.95;10.50;;;7.10;99.90;;;;;;5009946;28;20022;-48
2023/10/18 08:50:58;;;;;;;19.90;11.25;;;7.30;99.90;;;;;;4992895;28;20380;-48
2023/10/18 08:53:26;;;;;;;18.00;11.30;;;7.30;99.90;;;;;;5007784;28;20017;-47
2023/10/18 08:55:53;;;;;;;17.98;11.13;;;7.50;99.90;;;;;;5002879;28;20557;-48
2023/10/18 08:58:22;;;;;;;12.57;8.95;;;7.80;99.90;;;;;;5006806;28;20041;-47
2023/10/18 09:03:27;;;;;;;10.80;7.82;;;9.30;99.90;;;;;;5008638;28;20499;-51
2023/10/18 09:06:04;;;;;;;17.70;9.90;;;10.50;99.90;;;;;;5010117;28;20021;-51
2023/10/18 09:08:45;;;;;;;13.25;8.75;;;11.50;99.90;;;;;;5009782;28;20080;-51
2023/10/18 09:11:22;;;;;;;12.45;8.80;;;12.30;99.90;;;;;;5009499;28;20010;-51
2023/10/18 09:16:38;;;;;;;10.80;8.05;;;13.60;99.90;;;;;;5006225;28;20057;-50
2023/10/18 09:19:05;;;;;;;10.02;7.95;;;14.10;99.90;;;;;;5009705;28;20014;-52
2023/10/18 09:21:47;;;;;;;8.45;7.20;;;14.70;98.40;;;;;;4983365;28;20037;-50
2023/10/18 09:24:14;;;;;;;9.85;7.28;;;15.00;98.20;;;;;;4990268;28;20034;-51
2023/10/18 09:26:42;;;;;;;8.38;7.55;;;15.80;95.50;;;;;;4990194;28;20081;-49
2023/10/18 09:29:09;;;;;;;10.25;8.05;;;16.20;94.30;;;;;;4990037;28;20026;-47
2023/10/18 09:31:36;;;;;;;10.93;7.55;;;16.50;93.00;;;;;;4990175;28;20037;-48
2023/10/18 09:34:07;;;;;;;8.60;7.70;;;16.60;92.90;;;;;;4990441;28;20502;-49
2023/10/18 09:36:38;;;;;;;8.63;7.40;;;16.90;91.90;;;;;;4990203;28;20022;-49
2023/10/18 09:39:11;;;;;;;11.13;8.88;;;17.40;92.00;;;;;;4972521;28;20058;-49
2023/10/18 09:41:40;;;;;;;16.38;9.13;;;17.60;90.90;;;;;;4989863;28;20053;-49
2023/10/18 09:44:07;;;;;;;11.98;8.80;;;17.70;91.00;;;;;;4990066;28;20041;-51
2023/10/18 09:46:33;;;;;;;12.88;10.68;;;17.90;90.60;;;;;;4989580;28;20023;-50
2023/10/18 09:49:01;;;;;;;16.45;11.25;;;17.80;90.60;;;;;;4989555;28;20062;-50
2023/10/18 09:51:27;;;;;;;13.57;9.90;;;18.20;90.10;;;;;;4989932;28;20068;-49
2023/10/18 09:53:54;;;;;;;14.23;10.25;;;18.50;89.60;;;;;;4990049;28;20030;-50
2023/10/18 09:56:26;;;;;;;14.27;10.52;;;18.60;89.30;;;;;;4972151;28;20026;-50
2023/10/18 09:59:05;;;;;;;16.33;11.18;;;19.00;87.50;;;;;;4990254;28;20402;-50
2023/10/18 10:04:13;;;;;;;12.93;9.98;;;19.20;86.40;;;;;;4990218;28;20038;-50
2023/10/18 10:06:46;;;;;;;14.93;11.20;;;19.60;87.90;;;;;;4989560;28;20029;-51
2023/10/18 10:09:13;;;;;;;16.42;9.80;;;20.00;84.40;;;;;;4989894;28;20030;-51
2023/10/18 10:11:46;;;;;;;14.65;11.00;;;20.20;83.90;;;;;;4989926;28;20026;-50
2023/10/18 10:14:18;;;;;;;14.68;10.48;;;20.20;84.70;;;;;;4989609;28;20416;-50
2023/10/18 10:16:54;;;;;;;11.02;8.25;;;20.90;82.30;;;;;;4989530;28;20510;-50
2023/10/18 10:19:28;;;;;;;9.60;8.07;;;21.60;78.60;;;;;;4972340;28;20369;-50
2023/10/18 10:22:01;;;;;;;10.15;8.13;;;21.60;79.50;;;;;;4984677;28;20035;-51
2023/10/18 10:24:30;;;;;;;7.93;7.13;;;21.80;76.30;;;;;;4983274;28;20022;-50
2023/10/18 10:30:25;;;;;;;9.27;6.43;;;22.30;74.40;;;;;;4983493;28;20554;-49
2023/10/18 10:32:52;;;;;;;9.23;6.10;;;22.50;74.80;;;;;;4984144;28;20022;-50
2023/10/18 10:35:24;;;;;;;9.32;6.50;;;22.60;72.00;;;;;;4989850;28;20387;-51
2023/10/18 10:37:53;;;;;;;10.48;6.18;;;22.90;71.60;;;;;;4989888;28;20030;-50
2023/10/18 10:43:12;;;;;;;6.95;6.22;;;22.40;71.40;;;;;;4989778;28;20117;-50
2023/10/18 10:48:16;;;;;;;9.40;7.82;;;21.70;74.20;;;;;;4989312;28;20034;-50
2023/10/18 10:50:45;;;;;;;9.27;7.18;;;21.70;74.60;;;;;;4989157;28;20038;-50
2023/10/18 10:53:15;;;;;;;10.30;6.82;;;21.90;73.80;;;;;;4988966;28;20382;-50
2023/10/18 10:55:43;;;;;;;14.90;8.48;;;21.60;71.90;;;;;;4989101;28;20459;-49
2023/10/18 10:58:16;;;;;;;8.45;7.05;;;21.40;73.80;;;;;;4988669;28;20037;-51
2023/10/18 11:01:03;;;;;;;9.35;7.47;;;21.50;75.40;;;;;;4990644;28;20026;-50
2023/10/18 11:03:52;;;;;;;9.55;7.85;;;21.80;74.60;;;;;;4992978;28;20031;-50
2023/10/18 11:06:22;;;;;;;9.20;7.88;;;21.80;74.50;;;;;;4992674;28;20019;-49
2023/10/18 11:08:52;;;;;;;7.78;6.97;;;22.10;73.70;;;;;;4975453;28;20086;-50
2023/10/18 11:11:21;;;;;;;9.30;7.65;;;21.70;74.30;;;;;;4992851;28;20029;-49
2023/10/18 11:13:50;;;;;;;8.85;6.38;;;21.90;72.10;;;;;;4993362;28;20105;-49
2023/10/18 11:16:17;;;;;;;8.85;6.95;;;21.80;73.70;;;;;;4992578;28;20102;-50
2023/10/18 11:18:48;;;;;;;9.13;7.00;;;21.90;72.40;;;;;;4992795;28;20030;-50
2023/10/18 11:21:30;;;;;;;10.60;7.15;;;21.90;69.90;;;;;;4992629;28;20054;-49
2023/10/18 11:24:10;;;;;;;9.32;6.88;;;21.70;72.10;;;;;;4992640;28;20149;-49
2023/10/18 11:26:41;;;;;;;8.45;6.97;;;21.60;73.30;;;;;;4992500;28;20476;-50
2023/10/18 11:29:06;;;;;;;8.32;5.70;;;21.80;71.60;;;;;;4992760;28;20049;-50
2023/10/18 11:31:32;;;;;;;9.10;6.60;;;21.60;70.80;;;;;;4983145;28;20027;-50
2023/10/18 11:34:09;;;;;;;7.35;6.60;;;21.30;72.30;;;;;;4992321;28;20023;-51
2023/10/18 11:36:38;;;;;;;9.77;7.03;;;21.10;71.20;;;;;;4991889;28;20039;-49
2023/10/18 11:41:41;;;;;;;8.07;6.90;;;21.20;72.10;;;;;;4985807;28;20018;-50
2023/10/18 11:44:20;;;;;;;9.70;6.70;;;21.20;72.10;;;;;;4987615;28;20491;-50
2023/10/18 11:46:49;;;;;;;11.50;6.88;;;20.90;72.30;;;;;;4992306;28;20279;-50
2023/10/18 11:49:21;;;;;;;9.93;6.55;;;21.20;70.20;;;;;;4992128;28;20023;-50
2023/10/18 11:51:51;;;;;;;10.90;7.47;;;21.00;71.50;;;;;;4974616;28;20031;-50
2023/10/18 11:54:36;;;;;;;9.48;7.20;;;21.40;68.50;;;;;;4992027;28;20495;-49
2023/10/18 11:57:41;;;;;;;12.55;7.88;;;20.80;69.60;;;;;;4992146;28;20042;-49
2023/10/18 12:00:26;;;;;;;8.68;6.80;;;20.40;71.40;;;;;;4992204;28;20528;-50
2023/10/18 12:02:53;;;;;;;8.57;6.85;;;20.20;71.30;;;;;;4990680;28;20030;-50
2023/10/18 12:05:27;;;;;;;10.40;8.10;;;20.00;74.40;;;;;;4984475;28;20015;-50
2023/10/18 12:07:54;;;;;;;11.30;7.80;;;20.20;74.80;;;;;;4984745;28;20011;-50
2023/10/18 12:10:34;;;;;;;9.75;8.00;;;20.10;75.20;;;;;;4979421;28;20019;-50
2023/10/18 12:13:11;;;;;;;9.52;7.65;;;19.80;72.60;;;;;;4981974;28;20023;-50
2023/10/18 12:15:37;;;;;;;11.10;8.77;;;19.60;74.50;;;;;;4986373;28;20025;-49
2023/10/18 12:18:09;;;;;;;13.55;7.97;;;19.40;74.10;;;;;;4990464;28;20431;-49
2023/10/18 12:20:35;;;;;;;13.48;8.15;;;19.10;75.80;;;;;;4989794;28;20030;-49
2023/10/18 12:23:02;;;;;;;10.10;6.38;;;19.00;76.50;;;;;;4980310;28;20033;-50
2023/10/18 12:25:28;;;;;;;9.45;7.63;;;18.60;74.60;;;;;;4988121;28;20500;-48
2023/10/18 12:27:55;;;;;;;8.50;6.47;;;18.40;74.40;;;;;;4991463;28;20033;-49
2023/10/18 12:30:27;;;;;;;10.10;5.75;;;18.10;76.00;;;;;;4991712;28;20415;-47
2023/10/18 12:32:53;;;;;;;9.90;7.03;;;18.00;76.50;;;;;;4991382;28;20073;-49
2023/10/18 12:35:20;;;;;;;7.65;6.50;;;17.70;76.50;;;;;;4990986;28;20483;-46
2023/10/18 12:37:46;;;;;;;11.77;7.88;;;17.70;78.20;;;;;;4983843;28;20037;-49
2023/10/18 12:43:17;;;;;;;13.38;7.28;;;17.50;81.60;;;;;;4958701;28;20418;-50
2023/10/18 12:45:47;;;;;;;11.48;7.40;;;17.20;79.80;;;;;;4991268;28;20247;-50
2023/10/18 12:48:14;;;;;;;11.88;8.65;;;17.20;80.20;;;;;;4991287;28;20022;-47
2023/10/18 12:50:45;;;;;;;12.38;8.80;;;17.10;79.70;;;;;;4983950;28;20030;-47
2023/10/18 12:53:47;;;;;;;12.48;8.27;;;16.90;80.70;;;;;;4984517;28;20019;-46
2023/10/18 13:04:06;;;;;;;9.90;6.70;;;15.90;82.40;;;;;;4989458;28;20018;-46
2023/10/18 13:06:35;;;;;;;13.65;7.70;;;15.90;84.20;;;;;;4982779;28;20026;-48
2023/10/18 13:14:06;;;;;;;13.77;7.22;;;15.40;84.20;;;;;;4982889;28;20026;-48
2023/10/18 13:16:32;;;;;;;9.35;7.63;;;15.20;85.60;;;;;;4983330;28;20026;-47
2023/10/18 13:18:58;;;;;;;10.52;7.88;;;15.10;84.90;;;;;;4990632;28;20550;-49
2023/10/18 13:21:29;;;;;;;9.18;7.38;;;15.00;86.40;;;;;;4990197;28;20077;-49
2023/10/18 13:23:59;;;;;;;10.27;6.60;;;15.00;86.90;;;;;;4989515;28;20034;-47
2023/10/18 13:26:28;;;;;;;10.18;7.47;;;15.10;86.50;;;;;;4990285;28;20019;-47
2023/10/18 13:29:00;;;;;;;8.55;7.18;;;15.20;87.20;;;;;;4990502;28;20022;-50
2023/10/18 13:31:32;;;;;;;11.07;7.22;;;15.30;87.30;;;;;;4990186;28;20125;-47
2023/10/18 13:34:06;;;;;;;10.32;6.70;;;15.30;89.80;;;;;;4990319;28;20432;-48
2023/10/18 13:36:36;;;;;;;9.50;7.25;;;15.30;88.50;;;;;;4990048;28;20026;-46
2023/10/18 13:39:11;;;;;;;9.35;6.68;;;15.20;87.70;;;;;;4989623;28;20113;-48
2023/10/18 13:41:37;;;;;;;11.77;6.75;;;15.00;87.60;;;;;;4981232;28;20027;-47
2023/10/18 13:44:04;;;;;;;9.23;7.07;;;14.90;89.90;;;;;;4990034;28;20034;-47
2023/10/18 13:46:30;;;;;;;10.05;6.65;;;14.80;88.60;;;;;;4990284;28;20015;-45
2023/10/18 13:48:56;;;;;;;9.70;6.78;;;14.80;89.70;;;;;;4990269;28;20022;-50
2023/10/18 13:51:21;;;;;;;10.02;6.78;;;14.60;90.00;;;;;;4972602;28;20022;-46
2023/10/18 13:53:48;;;;;;;12.15;6.95;;;14.50;90.60;;;;;;4989946;28;20081;-50
2023/10/18 13:56:15;;;;;;;10.48;7.07;;;14.50;90.20;;;;;;4989478;28;20261;-48
2023/10/18 13:58:41;;;;;;;12.35;7.90;;;14.40;90.40;;;;;;4989823;28;20464;-48
2023/10/18 14:01:16;;;;;;;8.85;7.05;;;14.20;90.80;;;;;;4989987;28;20034;-48
2023/10/18 14:03:43;;;;;;;8.07;6.95;;;14.00;91.00;;;;;;4990079;28;20031;-48
2023/10/18 14:06:14;;;;;;;10.73;7.88;;;14.00;91.70;;;;;;4989629;28;20026;-47
2023/10/18 14:08:43;;;;;;;8.77;6.53;;;13.80;91.00;;;;;;4989640;28;20426;-49